Time;durP1;ratioP1;P1;durP2;ratioP2;P2;SDS_P1;SDS_P2;PMS_P1;PMS_P2;Temp;Humidity;BMP_temperature;BMP_pressure;BME280_temperature;BME280_humidity;BME280_pressure;Samples;Min_cycle;Max_cycle;Signal;HPM_P1;HPM_P2
2021/05/27 00:02:07;;;;;;;12.10;7.80;;;13.30;99.90;;;;;;4971962;28;20194;-90
2021/05/27 00:04:33;;;;;;;10.73;7.17;;;13.20;99.90;;;;;;4975036;28;20269;-90
2021/05/27 00:06:59;;;;;;;12.80;7.20;;;13.30;99.90;;;;;;4960056;28;20651;-90
2021/05/27 00:09:25;;;;;;;11.17;7.07;;;13.50;99.90;;;;;;4958045;28;20221;-89
2021/05/27 00:11:50;;;;;;;9.80;7.33;;;13.50;99.90;;;;;;4958228;28;20195;-90
2021/05/27 00:14:17;;;;;;;13.27;7.97;;;13.50;99.90;;;;;;4959989;28;20178;-90
2021/05/27 00:16:42;;;;;;;10.43;7.37;;;13.40;99.90;;;;;;4972098;28;20624;-90
2021/05/27 00:19:08;;;;;;;10.73;7.80;;;13.40;99.90;;;;;;4957165;28;20270;-89
2021/05/27 00:21:34;;;;;;;11.57;7.87;;;13.30;99.90;;;;;;4946738;29;20281;-89
2021/05/27 00:23:59;;;;;;;10.30;7.70;;;13.30;99.90;;;;;;4940173;28;20285;-90
2021/05/27 00:26:26;;;;;;;11.57;7.37;;;13.20;99.90;;;;;;4963060;28;20188;-89
2021/05/27 00:28:51;;;;;;;9.50;7.30;;;13.20;99.90;;;;;;4956119;28;20734;-89
2021/05/27 00:31:17;;;;;;;10.73;7.57;;;13.20;99.90;;;;;;4945694;28;20289;-89
2021/05/27 00:33:43;;;;;;;11.87;8.00;;;13.30;99.90;;;;;;4946983;28;20191;-89
2021/05/27 00:36:09;;;;;;;11.87;8.20;;;13.40;99.90;;;;;;4960774;28;20285;-89
2021/05/27 00:38:34;;;;;;;9.40;8.27;;;13.60;99.90;;;;;;4955186;28;20199;-89
2021/05/27 00:41:00;;;;;;;10.77;8.30;;;13.50;99.90;;;;;;4958370;28;20709;-90
2021/05/27 00:43:26;;;;;;;13.93;9.90;;;13.30;99.90;;;;;;4959281;28;20241;-89
2021/05/27 00:45:51;;;;;;;13.30;9.40;;;13.30;99.90;;;;;;4958881;28;20518;-89
2021/05/27 00:51:01;;;;;;;13.20;9.37;;;13.20;99.90;;;;;;4978886;28;20726;-89
2021/05/27 00:53:27;;;;;;;12.17;9.17;;;13.30;99.90;;;;;;4955148;28;20187;-90
2021/05/27 00:55:54;;;;;;;15.57;9.30;;;13.30;99.90;;;;;;4976298;28;20174;-90
2021/05/27 00:58:22;;;;;;;13.83;9.77;;;13.50;99.90;;;;;;4961031;28;20643;-89
2021/05/27 01:00:48;;;;;;;13.37;9.37;;;13.60;99.90;;;;;;4969003;28;20658;-90
2021/05/27 01:03:13;;;;;;;13.53;10.27;;;13.60;99.90;;;;;;4958153;28;20190;-89
2021/05/27 01:05:39;;;;;;;16.10;10.30;;;13.60;99.90;;;;;;4957888;28;20186;-90
2021/05/27 01:08:05;;;;;;;13.40;9.67;;;13.60;99.90;;;;;;4964250;28;20191;-90
2021/05/27 01:10:33;;;;;;;14.37;9.73;;;13.60;99.90;;;;;;4946390;28;20538;-90
2021/05/27 01:12:59;;;;;;;11.43;8.63;;;13.70;99.90;;;;;;4958040;28;20182;-90
2021/05/27 01:15:29;;;;;;;12.50;8.90;;;13.70;99.90;;;;;;4957220;28;20190;-90
2021/05/27 01:18:00;;;;;;;13.67;8.67;;;13.70;99.90;;;;;;4947805;28;20232;-90
2021/05/27 01:20:27;;;;;;;12.30;8.13;;;13.70;99.90;;;;;;4947910;28;20175;-89
2021/05/27 01:22:53;;;;;;;13.73;9.00;;;13.80;99.90;;;;;;4965769;28;20202;-89
2021/05/27 01:25:19;;;;;;;12.40;9.77;;;13.70;99.90;;;;;;4962733;28;20186;-89
2021/05/27 01:27:44;;;;;;;12.57;9.40;;;13.60;99.90;;;;;;4963077;28;20194;-89
2021/05/27 01:30:11;;;;;;;12.77;9.63;;;13.50;99.90;;;;;;4960346;28;20170;-89
2021/05/27 01:32:37;;;;;;;13.03;9.20;;;13.50;99.90;;;;;;4959529;28;20338;-89
2021/05/27 01:35:05;;;;;;;15.77;9.87;;;13.50;99.90;;;;;;4956754;28;20277;-89
2021/05/27 01:37:31;;;;;;;16.87;9.50;;;13.60;99.90;;;;;;4949440;29;20289;-89
2021/05/27 01:39:57;;;;;;;13.20;9.73;;;13.60;99.90;;;;;;4956458;28;20651;-90
2021/05/27 01:42:23;;;;;;;17.50;10.97;;;13.50;99.90;;;;;;4967613;28;20197;-89
2021/05/27 01:44:49;;;;;;;16.53;11.13;;;13.30;99.90;;;;;;4957811;28;20181;-92
2021/05/27 01:47:15;;;;;;;15.70;10.63;;;13.20;99.90;;;;;;4965484;28;20215;-90
2021/05/27 01:49:41;;;;;;;22.10;11.70;;;13.20;99.90;;;;;;4955616;28;20275;-89
2021/05/27 01:52:08;;;;;;;16.47;10.30;;;13.20;99.90;;;;;;4956859;28;20185;-90
2021/05/27 01:54:34;;;;;;;19.33;12.03;;;13.50;99.90;;;;;;4961520;28;20178;-90
2021/05/27 01:56:59;;;;;;;22.57;14.13;;;13.40;99.90;;;;;;4955655;28;20230;-89
2021/05/27 01:59:25;;;;;;;24.00;13.53;;;13.20;99.90;;;;;;4952627;28;20187;-89
2021/05/27 02:01:51;;;;;;;23.80;13.50;;;13.10;99.90;;;;;;4950636;28;20197;-90
2021/05/27 02:04:16;;;;;;;21.07;13.03;;;12.90;99.90;;;;;;4949066;28;20195;-89
2021/05/27 02:06:43;;;;;;;24.07;13.50;;;12.80;99.90;;;;;;4965995;28;20193;-90
2021/05/27 02:09:10;;;;;;;21.63;13.83;;;12.90;99.90;;;;;;4959517;28;20635;-89
2021/05/27 02:11:44;;;;;;;20.53;12.80;;;13.10;99.90;;;;;;4966254;28;20193;-90
2021/05/27 02:14:12;;;;;;;19.53;14.20;;;13.00;99.90;;;;;;4961972;28;20224;-90
2021/05/27 02:16:39;;;;;;;24.40;14.20;;;13.00;99.90;;;;;;4958155;28;20210;-89
2021/05/27 02:19:06;;;;;;;26.83;14.63;;;13.00;99.90;;;;;;4973638;28;20577;-89
2021/05/27 02:21:32;;;;;;;26.27;13.30;;;12.90;99.90;;;;;;4972323;28;20186;-89
2021/05/27 02:23:59;;;;;;;21.00;14.57;;;12.90;99.90;;;;;;4942609;29;20190;-89
2021/05/27 02:26:28;;;;;;;25.20;13.87;;;12.90;99.90;;;;;;4947907;28;20188;-91
2021/05/27 02:28:55;;;;;;;25.27;15.03;;;12.90;99.90;;;;;;4943496;28;20194;-92
2021/05/27 02:31:22;;;;;;;23.73;14.47;;;12.80;99.90;;;;;;4960205;28;20194;-92
2021/05/27 02:33:49;;;;;;;25.80;15.03;;;12.80;99.90;;;;;;4971543;28;20178;-92
2021/05/27 02:36:15;;;;;;;26.50;14.80;;;12.80;99.90;;;;;;4963160;28;20225;-91
2021/05/27 02:38:41;;;;;;;26.17;15.77;;;12.90;99.90;;;;;;4964278;28;20201;-89
2021/05/27 02:41:07;;;;;;;23.53;14.70;;;12.90;99.90;;;;;;4960241;28;20182;-90
2021/05/27 02:43:33;;;;;;;21.40;14.23;;;12.90;99.90;;;;;;4944223;29;20234;-90
2021/05/27 02:46:00;;;;;;;23.13;14.23;;;12.90;99.90;;;;;;4942228;28;20190;-90
2021/05/27 02:48:26;;;;;;;22.40;14.33;;;13.00;99.90;;;;;;4968166;28;20186;-90
2021/05/27 02:50:52;;;;;;;25.47;15.27;;;13.10;99.90;;;;;;4973562;28;20190;-90
2021/05/27 02:53:18;;;;;;;21.77;14.87;;;12.90;99.90;;;;;;4951895;28;20557;-90
2021/05/27 02:55:43;;;;;;;23.57;14.83;;;12.90;99.90;;;;;;4961227;28;20187;-90
2021/05/27 02:58:09;;;;;;;26.77;15.20;;;12.90;99.90;;;;;;4968658;28;20229;-90
2021/05/27 03:00:35;;;;;;;25.43;13.90;;;12.90;99.90;;;;;;4959117;28;20647;-92
2021/05/27 03:03:00;;;;;;;27.73;15.07;;;12.80;99.90;;;;;;4941366;29;20186;-91
2021/05/27 03:05:26;;;;;;;24.47;15.33;;;12.90;99.90;;;;;;4952687;28;20573;-92
2021/05/27 03:07:52;;;;;;;22.70;14.57;;;13.00;99.90;;;;;;4966104;28;20167;-91
2021/05/27 03:10:18;;;;;;;23.53;13.13;;;13.00;99.90;;;;;;4957153;28;20205;-91
2021/05/27 03:12:44;;;;;;;29.10;13.97;;;13.10;99.90;;;;;;4945066;29;20246;-92
2021/05/27 03:15:10;;;;;;;22.57;13.90;;;13.10;99.90;;;;;;4957122;28;20189;-91
2021/05/27 03:17:35;;;;;;;21.57;14.93;;;13.10;99.90;;;;;;4965766;28;20246;-91
2021/05/27 03:20:01;;;;;;;25.57;14.07;;;13.10;99.90;;;;;;4963529;28;20633;-91
2021/05/27 03:22:27;;;;;;;22.17;14.53;;;13.10;99.90;;;;;;4957994;28;20233;-92
2021/05/27 03:24:52;;;;;;;27.30;14.57;;;13.10;99.90;;;;;;4958033;28;20293;-91
2021/05/27 03:27:18;;;;;;;21.83;14.53;;;13.00;99.90;;;;;;4945741;28;20195;-91
2021/05/27 03:29:44;;;;;;;24.77;15.30;;;13.00;99.90;;;;;;4945452;28;20600;-92
2021/05/27 03:32:10;;;;;;;25.47;14.97;;;12.90;99.90;;;;;;4940870;29;20199;-90
2021/05/27 03:34:35;;;;;;;25.40;15.20;;;12.90;99.90;;;;;;4961785;28;20186;-91
2021/05/27 03:37:01;;;;;;;25.40;15.47;;;12.90;99.90;;;;;;4949496;28;20225;-90
2021/05/27 03:39:27;;;;;;;27.83;16.20;;;13.00;99.90;;;;;;4968007;28;20182;-91
2021/05/27 03:41:52;;;;;;;25.83;15.90;;;13.10;99.90;;;;;;4970780;28;20338;-90
2021/05/27 03:44:18;;;;;;;28.53;17.23;;;13.10;99.90;;;;;;4959442;28;20189;-91
2021/05/27 03:46:44;;;;;;;27.20;17.03;;;13.00;99.90;;;;;;4953874;28;20197;-91
2021/05/27 03:49:09;;;;;;;34.27;17.07;;;12.90;99.90;;;;;;4946849;28;20197;-90
2021/05/27 03:51:35;;;;;;;32.27;17.83;;;12.80;99.90;;;;;;4964366;28;20185;-90
2021/05/27 03:54:00;;;;;;;24.87;16.73;;;12.80;99.90;;;;;;4949692;29;20250;-90
2021/05/27 03:56:27;;;;;;;27.87;17.40;;;12.80;99.90;;;;;;4945490;28;20206;-89
2021/05/27 04:01:37;;;;;;;29.13;16.83;;;12.80;99.90;;;;;;4957254;28;20236;-90
2021/05/27 04:09:31;;;;;;;32.80;17.30;;;12.70;99.90;;;;;;4958400;28;20202;-90
2021/05/27 04:14:42;;;;;;;26.07;16.97;;;12.60;99.90;;;;;;4964627;28;20196;-91
2021/05/27 04:17:08;;;;;;;29.50;17.50;;;12.70;99.90;;;;;;4958959;28;20224;-91
2021/05/27 04:19:34;;;;;;;33.87;17.90;;;12.70;99.90;;;;;;4960295;28;20186;-91
2021/05/27 04:21:59;;;;;;;31.77;17.93;;;12.80;99.90;;;;;;4971623;28;20203;-91
2021/05/27 04:24:25;;;;;;;28.80;16.90;;;13.00;99.90;;;;;;4952446;29;20224;-91
2021/05/27 04:26:51;;;;;;;33.20;17.27;;;13.10;99.90;;;;;;4948647;28;20202;-91
2021/05/27 04:29:18;;;;;;;26.73;17.50;;;12.90;99.90;;;;;;4948042;28;20194;-91
2021/05/27 04:31:43;;;;;;;29.77;17.30;;;12.90;99.90;;;;;;4954283;28;20257;-91
2021/05/27 04:34:09;;;;;;;30.30;18.33;;;12.70;99.90;;;;;;4956671;28;20182;-91
2021/05/27 04:36:35;;;;;;;33.63;19.47;;;12.70;99.90;;;;;;4957243;28;20226;-91
2021/05/27 04:39:00;;;;;;;41.60;18.83;;;12.70;99.90;;;;;;4969746;28;20186;-91
2021/05/27 04:41:26;;;;;;;30.60;18.47;;;12.70;99.90;;;;;;4941271;28;20215;-91
2021/05/27 04:43:54;;;;;;;28.37;18.50;;;12.70;99.90;;;;;;4939539;29;20608;-91
2021/05/27 04:46:21;;;;;;;31.10;18.73;;;12.70;99.90;;;;;;4955541;28;20735;-91
2021/05/27 04:48:47;;;;;;;36.10;18.07;;;12.70;99.90;;;;;;4971250;28;20186;-91
2021/05/27 04:51:13;;;;;;;30.60;18.30;;;12.80;99.90;;;;;;4948929;28;20523;-91
2021/05/27 04:53:38;;;;;;;31.67;18.30;;;12.80;99.90;;;;;;4953718;28;20581;-91
2021/05/27 04:56:05;;;;;;;31.97;19.00;;;12.90;99.90;;;;;;4952778;28;20182;-91
2021/05/27 04:58:31;;;;;;;32.83;19.27;;;12.70;99.90;;;;;;4943751;28;20197;-90
2021/05/27 05:00:59;;;;;;;33.30;18.80;;;12.60;99.90;;;;;;4941526;29;20242;-91
2021/05/27 05:03:25;;;;;;;33.53;18.23;;;12.70;99.90;;;;;;4949904;28;20572;-91
2021/05/27 05:05:50;;;;;;;36.87;18.10;;;12.90;99.90;;;;;;4944408;28;20191;-89
2021/05/27 05:08:16;;;;;;;28.90;19.97;;;13.00;99.90;;;;;;4941958;28;20726;-90
2021/05/27 05:10:43;;;;;;;34.60;18.50;;;13.00;99.90;;;;;;4944866;28;20183;-89
2021/05/27 05:13:09;;;;;;;33.20;19.57;;;12.90;99.90;;;;;;4939603;29;20233;-90
2021/05/27 05:15:37;;;;;;;30.37;18.03;;;12.90;99.90;;;;;;4944769;28;20270;-89
2021/05/27 05:18:05;;;;;;;30.33;18.33;;;13.00;99.90;;;;;;4938130;28;20221;-90
2021/05/27 05:20:35;;;;;;;38.10;18.00;;;12.90;99.90;;;;;;4938730;28;20221;-89
2021/05/27 05:23:02;;;;;;;27.87;18.37;;;12.70;99.90;;;;;;4947795;28;20557;-89
2021/05/27 05:25:29;;;;;;;32.43;18.90;;;12.70;99.90;;;;;;4950648;28;20188;-89
2021/05/27 05:27:55;;;;;;;31.67;18.33;;;12.80;99.90;;;;;;4941827;29;20262;-90
2021/05/27 05:30:23;;;;;;;28.83;18.07;;;12.90;99.90;;;;;;4942585;29;20195;-89
2021/05/27 05:32:49;;;;;;;29.53;17.90;;;12.90;99.90;;;;;;4944593;29;20734;-90
2021/05/27 05:35:16;;;;;;;29.93;18.70;;;13.00;99.90;;;;;;4943204;28;20576;-89
2021/05/27 05:37:43;;;;;;;32.57;17.67;;;13.10;99.90;;;;;;4941609;28;20229;-90
2021/05/27 05:40:11;;;;;;;26.50;17.80;;;13.20;99.90;;;;;;4945981;28;20179;-90
2021/05/27 05:42:38;;;;;;;32.07;19.47;;;13.10;99.90;;;;;;4946789;28;20201;-89
2021/05/27 05:45:07;;;;;;;29.43;18.10;;;13.10;99.90;;;;;;4944663;28;20208;-89
2021/05/27 05:47:33;;;;;;;27.30;17.20;;;13.20;99.90;;;;;;4958411;28;20194;-89
2021/05/27 05:49:58;;;;;;;29.30;17.97;;;13.20;99.90;;;;;;4942931;28;20191;-90
2021/05/27 05:52:24;;;;;;;26.43;17.37;;;13.30;99.90;;;;;;4948253;28;20760;-89
2021/05/27 05:54:50;;;;;;;26.53;17.00;;;13.30;99.90;;;;;;4942059;28;20218;-89
2021/05/27 05:57:16;;;;;;;25.30;15.90;;;13.10;99.90;;;;;;4947689;28;20220;-89
2021/05/27 05:59:41;;;;;;;28.83;18.20;;;13.10;99.90;;;;;;4951039;28;20191;-89
2021/05/27 06:02:08;;;;;;;26.67;16.50;;;13.10;99.90;;;;;;4947907;28;20317;-90
2021/05/27 06:04:33;;;;;;;31.90;17.03;;;13.20;99.90;;;;;;4942953;28;20269;-90
2021/05/27 06:06:59;;;;;;;26.83;16.47;;;13.20;99.90;;;;;;4942863;28;20282;-89
2021/05/27 06:09:26;;;;;;;24.13;15.63;;;13.30;99.90;;;;;;4944758;28;20651;-89
2021/05/27 06:11:52;;;;;;;22.33;15.17;;;13.40;99.90;;;;;;4949934;28;20170;-89
2021/05/27 06:14:18;;;;;;;23.67;15.20;;;13.50;99.90;;;;;;4944100;28;20218;-89
2021/05/27 06:16:44;;;;;;;24.37;16.13;;;13.70;99.90;;;;;;4949931;28;20208;-89
2021/05/27 06:19:10;;;;;;;27.67;16.17;;;13.70;99.90;;;;;;4951625;28;20236;-89
2021/05/27 06:21:36;;;;;;;25.17;14.93;;;13.60;99.90;;;;;;4953826;28;20651;-90
2021/05/27 06:24:01;;;;;;;25.97;16.00;;;13.60;99.90;;;;;;4946492;28;20258;-89
2021/05/27 06:26:27;;;;;;;26.73;15.80;;;13.70;99.90;;;;;;4952548;28;20972;-89
2021/05/27 06:28:55;;;;;;;26.23;16.10;;;13.60;99.90;;;;;;4949669;28;20187;-89
2021/05/27 06:31:22;;;;;;;24.90;16.53;;;13.50;99.90;;;;;;4951842;28;20298;-89
2021/05/27 06:33:49;;;;;;;23.53;14.90;;;13.40;99.90;;;;;;4949864;28;20197;-89
2021/05/27 06:36:15;;;;;;;23.53;15.90;;;13.40;99.90;;;;;;4954260;28;20219;-89
2021/05/27 06:38:40;;;;;;;21.63;15.00;;;13.50;99.90;;;;;;4953893;28;20201;-89
2021/05/27 06:41:07;;;;;;;24.30;15.53;;;13.50;99.90;;;;;;4949893;28;20225;-90
2021/05/27 06:43:33;;;;;;;23.73;14.77;;;13.50;99.90;;;;;;4943100;28;20699;-90
2021/05/27 06:45:59;;;;;;;23.47;15.57;;;13.40;99.90;;;;;;4956837;28;20195;-89
2021/05/27 06:48:25;;;;;;;23.90;15.13;;;13.40;99.90;;;;;;4943458;28;20283;-89
2021/05/27 06:50:51;;;;;;;24.73;15.40;;;13.40;99.90;;;;;;4950007;28;20182;-89
2021/05/27 06:53:19;;;;;;;22.47;14.47;;;13.50;99.90;;;;;;4957581;28;20664;-89
2021/05/27 06:55:46;;;;;;;25.60;15.30;;;13.50;99.90;;;;;;4948868;28;20226;-89
2021/05/27 06:58:13;;;;;;;21.20;15.00;;;13.60;99.90;;;;;;4957495;28;20214;-89
2021/05/27 07:00:40;;;;;;;20.30;13.67;;;13.70;99.90;;;;;;4958443;28;20214;-89
2021/05/27 07:03:07;;;;;;;20.53;13.40;;;13.90;99.90;;;;;;4947097;28;20210;-89
2021/05/27 07:05:36;;;;;;;20.50;12.83;;;14.00;99.90;;;;;;4946736;28;20558;-89
2021/05/27 07:08:03;;;;;;;23.97;13.73;;;14.10;99.90;;;;;;4955782;28;20180;-89
2021/05/27 07:10:32;;;;;;;17.90;12.53;;;14.10;99.90;;;;;;4961333;28;20196;-90
2021/05/27 07:13:03;;;;;;;21.17;13.33;;;14.10;99.90;;;;;;4964642;28;20186;-89
2021/05/27 07:15:29;;;;;;;19.43;13.13;;;14.30;99.90;;;;;;4946969;28;20198;-89
2021/05/27 07:17:56;;;;;;;16.90;12.17;;;14.10;99.90;;;;;;4942013;28;20222;-90
2021/05/27 07:20:24;;;;;;;18.87;11.97;;;13.90;99.90;;;;;;4942144;28;20276;-89
2021/05/27 07:22:51;;;;;;;16.20;10.97;;;13.90;99.90;;;;;;4940847;29;20632;-89
2021/05/27 07:25:20;;;;;;;19.20;10.57;;;13.90;99.90;;;;;;4950598;28;20181;-90
2021/05/27 07:27:48;;;;;;;17.33;11.20;;;14.00;99.90;;;;;;4949266;28;20197;-90
2021/05/27 07:30:14;;;;;;;18.30;10.37;;;14.10;99.90;;;;;;4960076;28;20221;-90
2021/05/27 07:32:40;;;;;;;20.90;12.60;;;14.20;99.90;;;;;;4941459;28;20551;-89
2021/05/27 07:35:06;;;;;;;16.10;12.17;;;14.20;99.90;;;;;;4948364;28;20186;-89
2021/05/27 07:37:32;;;;;;;20.27;13.10;;;14.20;99.90;;;;;;4943414;29;20216;-90
2021/05/27 07:39:58;;;;;;;17.10;12.33;;;14.30;99.90;;;;;;4962939;28;20187;-90
2021/05/27 07:42:24;;;;;;;20.87;13.33;;;14.40;99.90;;;;;;4946645;28;20559;-90
2021/05/27 07:44:50;;;;;;;18.57;12.97;;;14.40;99.90;;;;;;4949787;28;20273;-89
2021/05/27 07:47:15;;;;;;;19.90;13.97;;;14.30;99.90;;;;;;4946784;29;20218;-89
2021/05/27 07:49:41;;;;;;;23.27;14.63;;;14.20;99.90;;;;;;4948846;28;20187;-90
2021/05/27 07:52:07;;;;;;;18.77;13.33;;;14.10;99.90;;;;;;4948857;28;20187;-89
2021/05/27 07:54:33;;;;;;;24.10;13.80;;;14.10;99.90;;;;;;4945297;29;20180;-90
2021/05/27 07:57:00;;;;;;;22.27;13.63;;;14.20;99.90;;;;;;4942485;29;20334;-90
2021/05/27 07:59:25;;;;;;;18.50;12.73;;;14.30;99.90;;;;;;4940815;28;20214;-90
2021/05/27 08:01:51;;;;;;;20.30;13.27;;;14.40;99.90;;;;;;4958984;28;20718;-90
2021/05/27 08:04:17;;;;;;;20.93;13.03;;;14.40;99.90;;;;;;4958880;28;20191;-89
2021/05/27 08:06:43;;;;;;;18.23;13.73;;;14.40;99.90;;;;;;4944572;28;20227;-90
2021/05/27 08:09:11;;;;;;;24.33;14.30;;;14.40;99.90;;;;;;4948583;28;20632;-89
2021/05/27 08:11:46;;;;;;;23.40;13.97;;;14.30;99.90;;;;;;4953657;28;20193;-90
2021/05/27 08:14:11;;;;;;;23.93;13.43;;;14.30;99.90;;;;;;4952236;28;20228;-90
2021/05/27 08:16:37;;;;;;;22.93;14.90;;;14.20;99.90;;;;;;4961525;28;20210;-90
2021/05/27 08:19:04;;;;;;;23.10;15.23;;;14.10;99.90;;;;;;4955198;28;20518;-89
2021/05/27 08:21:30;;;;;;;22.83;15.63;;;14.10;99.90;;;;;;4957701;28;20178;-90
2021/05/27 08:23:57;;;;;;;23.43;16.97;;;14.10;99.90;;;;;;4955254;28;20608;-90
2021/05/27 08:26:26;;;;;;;25.23;17.27;;;14.10;99.90;;;;;;4958523;28;20185;-90
2021/05/27 08:28:57;;;;;;;24.73;17.77;;;14.20;99.90;;;;;;4957880;28;20229;-90
2021/05/27 08:31:43;;;;;;;;;;;;;;;;;;;;;
2021/05/27 08:34:23;;;;;;;25.43;17.53;;;14.60;99.90;;;;;;4975179;28;20188;-90
2021/05/27 08:36:51;;;;;;;26.37;15.90;;;14.90;99.90;;;;;;4973341;28;20215;-90
2021/05/27 08:39:21;;;;;;;27.20;18.17;;;15.20;99.90;;;;;;4958486;28;20207;-91
2021/05/27 08:41:52;;;;;;;22.40;16.60;;;15.20;99.90;;;;;;4958230;28;20198;-91
2021/05/27 08:44:24;;;;;;;22.40;15.63;;;15.20;99.90;;;;;;4958278;28;20187;-90
2021/05/27 08:47:17;;;;;;;;;;;;;;;;;;;;;
2021/05/27 08:49:51;;;;;;;22.33;15.20;;;15.50;99.90;;;;;;4969470;28;20540;-91
2021/05/27 08:52:19;;;;;;;18.77;14.50;;;15.60;99.90;;;;;;4958269;28;20193;-91
2021/05/27 08:54:49;;;;;;;18.90;13.50;;;15.80;99.90;;;;;;4956744;28;20245;-90
2021/05/27 08:57:18;;;;;;;19.83;12.97;;;15.90;99.90;;;;;;4946190;28;20227;-91
2021/05/27 08:59:43;;;;;;;17.43;11.93;;;16.00;99.90;;;;;;4952337;28;20198;-90
2021/05/27 09:02:11;;;;;;;18.37;12.53;;;16.00;99.90;;;;;;4952385;28;20183;-91
2021/05/27 09:04:40;;;;;;;18.63;12.93;;;16.00;99.90;;;;;;4952832;28;20190;-91
2021/05/27 09:07:07;;;;;;;16.80;12.47;;;16.20;99.90;;;;;;4943897;28;20181;-90
2021/05/27 09:09:54;;;;;;;16.63;11.50;;;16.10;99.90;;;;;;4956957;28;20186;-90
2021/05/27 09:12:32;;;;;;;13.93;10.83;;;16.00;99.90;;;;;;4957514;28;20240;-90
2021/05/27 09:15:03;;;;;;;18.10;12.17;;;16.00;99.90;;;;;;4943925;28;20290;-90
2021/05/27 09:17:46;;;;;;;15.90;11.80;;;16.00;99.90;;;;;;4942321;28;20208;-91
2021/05/27 09:20:14;;;;;;;16.53;11.60;;;16.30;99.90;;;;;;4949261;28;20187;-91
2021/05/27 09:22:40;;;;;;;15.67;11.20;;;16.30;99.90;;;;;;4955423;28;20190;-90
2021/05/27 09:25:08;;;;;;;14.00;11.43;;;16.20;99.90;;;;;;4961252;28;20180;-90
2021/05/27 09:27:51;;;;;;;11.87;9.63;;;16.10;99.90;;;;;;4956657;28;20549;-90
2021/05/27 09:30:19;;;;;;;14.63;10.27;;;16.40;99.90;;;;;;4943647;28;20198;-91
2021/05/27 09:32:49;;;;;;;11.63;9.30;;;16.60;99.90;;;;;;4962364;28;20340;-91
2021/05/27 09:35:16;;;;;;;14.23;10.23;;;16.80;99.90;;;;;;4952961;28;20183;-90
2021/05/27 09:37:50;;;;;;;13.40;8.90;;;16.80;99.90;;;;;;4962035;28;20275;-90
2021/05/27 09:40:38;;;;;;;13.77;9.23;;;16.70;99.90;;;;;;4950803;28;20188;-90
2021/05/27 09:43:19;;;;;;;11.03;9.07;;;16.50;99.90;;;;;;4955261;28;20248;-90
2021/05/27 09:45:58;;;;;;;11.67;8.83;;;16.40;99.90;;;;;;4956556;28;20186;-91
2021/05/27 09:48:24;;;;;;;14.30;10.07;;;16.40;99.90;;;;;;4954863;28;20319;-90
2021/05/27 09:50:54;;;;;;;13.43;10.47;;;16.20;99.90;;;;;;4958205;28;20199;-91
2021/05/27 09:53:23;;;;;;;12.80;10.67;;;15.90;99.90;;;;;;4952220;28;20276;-90
2021/05/27 09:55:49;;;;;;;15.20;11.07;;;15.80;99.90;;;;;;4962075;28;20282;-90
2021/05/27 09:58:20;;;;;;;14.17;10.30;;;15.90;99.90;;;;;;4941903;29;20219;-91
2021/05/27 10:00:48;;;;;;;15.00;9.73;;;15.90;99.90;;;;;;4956629;28;20220;-90
2021/05/27 10:03:30;;;;;;;15.03;10.30;;;15.90;99.90;;;;;;4959564;28;20192;-90
2021/05/27 10:05:59;;;;;;;11.90;10.10;;;15.60;99.90;;;;;;4949463;28;20589;-90
2021/05/27 10:08:25;;;;;;;13.03;9.63;;;15.20;99.90;;;;;;4941978;29;20195;-90
2021/05/27 10:10:52;;;;;;;14.50;10.90;;;15.10;99.90;;;;;;4955825;28;20182;-91
2021/05/27 10:13:23;;;;;;;13.47;9.57;;;15.10;99.90;;;;;;4956170;28;20188;-90
2021/05/27 10:15:49;;;;;;;14.87;9.93;;;15.10;99.90;;;;;;4962300;28;20172;-89
2021/05/27 10:18:21;;;;;;;14.90;9.60;;;15.40;99.90;;;;;;4967767;28;20242;-89
2021/05/27 10:20:48;;;;;;;15.20;9.03;;;15.70;99.90;;;;;;4961147;29;20193;-90
2021/05/27 10:23:15;;;;;;;9.00;7.70;;;16.10;99.90;;;;;;4975297;28;20172;-90
2021/05/27 10:25:43;;;;;;;11.33;7.47;;;16.20;99.90;;;;;;4988418;28;20192;-91
2021/05/27 10:28:15;;;;;;;9.80;6.90;;;16.40;99.90;;;;;;4962649;28;20179;-89
2021/05/27 10:30:43;;;;;;;8.47;6.57;;;16.60;99.90;;;;;;4968168;28;20173;-90
2021/05/27 10:33:16;;;;;;;9.00;6.10;;;16.70;99.90;;;;;;4981661;28;20164;-90
2021/05/27 10:35:51;;;;;;;9.00;6.00;;;16.70;99.90;;;;;;4984226;28;20173;-90
2021/05/27 10:38:40;;;;;;;7.30;5.40;;;16.70;99.90;;;;;;4986386;28;20225;-90
2021/05/27 10:41:07;;;;;;;8.73;6.00;;;16.70;99.90;;;;;;4999597;28;20202;-90
2021/05/27 10:43:33;;;;;;;9.97;6.13;;;16.70;99.90;;;;;;4973545;28;20280;-90
2021/05/27 10:46:25;;;;;;;8.30;7.37;;;16.50;99.90;;;;;;4984407;28;20200;-90
2021/05/27 10:48:51;;;;;;;10.00;6.83;;;16.30;99.90;;;;;;4982636;28;20197;-90
2021/05/27 10:53:58;;;;;;;10.13;7.50;;;16.40;99.90;;;;;;4971147;28;20188;-89
2021/05/27 10:56:36;;;;;;;9.93;6.90;;;16.60;99.90;;;;;;4941438;29;20179;-90
2021/05/27 10:59:13;;;;;;;12.23;7.53;;;16.90;99.90;;;;;;4957050;28;20654;-90
2021/05/27 11:01:43;;;;;;;8.67;6.53;;;17.00;99.90;;;;;;4958290;28;20187;-90
2021/05/27 11:04:25;;;;;;;7.83;5.73;;;17.00;99.90;;;;;;4944692;28;20192;-90
2021/05/27 11:07:11;;;;;;;10.60;6.40;;;17.10;99.90;;;;;;4942364;28;20688;-89
2021/05/27 11:09:37;;;;;;;8.17;5.33;;;17.10;99.90;;;;;;4940813;29;20188;-90
2021/05/27 11:12:11;;;;;;;13.67;7.13;;;17.10;99.90;;;;;;4948776;28;20199;-91
2021/05/27 11:14:45;;;;;;;11.67;5.87;;;17.10;99.90;;;;;;4941250;28;20189;-89
2021/05/27 11:17:18;;;;;;;7.33;5.20;;;17.40;99.90;;;;;;4950850;28;20740;-90
2021/05/27 11:22:34;;;;;;;10.97;6.07;;;17.70;99.90;;;;;;4976299;28;20198;-90
2021/05/27 11:25:10;;;;;;;9.30;4.83;;;17.60;99.90;;;;;;4959713;28;20196;-91
2021/05/27 11:27:37;;;;;;;8.40;4.97;;;17.80;99.90;;;;;;4950819;28;20214;-89
2021/05/27 11:30:22;;;;;;;8.03;5.20;;;18.40;99.50;;;;;;4956780;28;20186;-90
2021/05/27 11:32:50;;;;;;;7.97;4.30;;;19.30;98.20;;;;;;4973432;28;20193;-90
2021/05/27 11:35:18;;;;;;;7.00;4.10;;;19.90;97.20;;;;;;4948479;28;20193;-91
2021/05/27 11:37:49;;;;;;;5.07;3.80;;;20.30;96.80;;;;;;4964398;28;20276;-91
2021/05/27 11:40:17;;;;;;;10.13;4.27;;;20.00;95.80;;;;;;4947074;28;20204;-91
2021/05/27 11:42:54;;;;;;;9.03;4.53;;;19.70;96.50;;;;;;4948051;28;20282;-91
2021/05/27 11:45:23;;;;;;;5.03;3.77;;;20.10;96.50;;;;;;4950952;28;20186;-90
2021/05/27 11:48:11;;;;;;;6.17;3.70;;;21.20;95.20;;;;;;4948125;28;20645;-91
2021/05/27 11:50:37;;;;;;;7.13;4.43;;;22.30;93.20;;;;;;4956168;28;20239;-90
2021/05/27 11:53:03;;;;;;;6.60;4.87;;;22.20;92.80;;;;;;4951645;28;20186;-90
2021/05/27 11:55:28;;;;;;;7.97;4.60;;;21.40;93.00;;;;;;4973961;28;20196;-90
2021/05/27 11:57:54;;;;;;;8.53;5.30;;;20.50;94.00;;;;;;4972999;28;20233;-90
2021/05/27 12:00:21;;;;;;;7.53;4.93;;;20.50;94.10;;;;;;4952536;28;20212;-90
2021/05/27 12:02:54;;;;;;;9.37;4.80;;;21.50;93.20;;;;;;4941389;28;20562;-90
2021/05/27 12:05:25;;;;;;;9.47;4.57;;;22.10;92.00;;;;;;4942157;28;20184;-90
2021/05/27 12:08:10;;;;;;;8.17;4.80;;;22.00;91.80;;;;;;4939453;29;20201;-90
2021/05/27 12:10:37;;;;;;;8.73;4.53;;;21.60;92.20;;;;;;4939986;29;20192;-90
2021/05/27 12:13:17;;;;;;;9.80;5.63;;;21.70;92.60;;;;;;4940280;29;20632;-90
2021/05/27 12:15:44;;;;;;;7.47;4.33;;;22.90;91.00;;;;;;4945863;28;20705;-91
2021/05/27 12:18:20;;;;;;;8.30;3.83;;;23.90;89.20;;;;;;4958507;28;20203;-90
2021/05/27 12:20:48;;;;;;;6.03;3.37;;;24.10;86.30;;;;;;4958839;28;20191;-91
2021/05/27 12:23:16;;;;;;;7.13;4.50;;;23.70;86.60;;;;;;4952370;28;20270;-90
2021/05/27 12:25:45;;;;;;;7.17;3.87;;;23.20;87.60;;;;;;4940866;29;20644;-90
2021/05/27 12:28:15;;;;;;;8.40;4.30;;;22.00;87.50;;;;;;4957741;28;20213;-90
2021/05/27 12:30:46;;;;;;;6.83;3.40;;;21.30;90.40;;;;;;4957845;28;20175;-90
2021/05/27 12:33:17;;;;;;;7.07;3.57;;;21.10;90.70;;;;;;4954981;28;20177;-90
2021/05/27 12:35:43;;;;;;;6.50;3.93;;;21.80;90.40;;;;;;4958389;28;20695;-91
2021/05/27 12:38:27;;;;;;;8.87;4.00;;;21.90;89.60;;;;;;4958698;28;20304;-90
2021/05/27 12:41:01;;;;;;;5.27;3.63;;;22.50;88.90;;;;;;4959072;28;20276;-90
2021/05/27 12:43:34;;;;;;;3.73;3.20;;;23.60;85.70;;;;;;4958500;28;20202;-90
2021/05/27 12:46:01;;;;;;;4.33;2.70;;;24.10;83.20;;;;;;4949903;28;20198;-90
2021/05/27 12:48:29;;;;;;;4.97;2.63;;;24.60;80.00;;;;;;4955867;28;20632;-90
2021/05/27 12:51:06;;;;;;;4.33;2.40;;;24.00;78.90;;;;;;4949082;28;20196;-90
2021/05/27 12:53:33;;;;;;;5.97;3.30;;;23.90;79.10;;;;;;4951220;28;20218;-90
2021/05/27 12:56:11;;;;;;;4.33;2.20;;;24.50;79.20;;;;;;4966251;28;20191;-90
2021/05/27 12:58:40;;;;;;;4.47;1.50;;;25.40;75.70;;;;;;4960904;28;20230;-91
2021/05/27 13:01:07;;;;;;;1.70;1.40;;;26.00;73.40;;;;;;4961426;28;20185;-90